Time;durP1;ratioP1;P1;durP2;ratioP2;P2;SDS_P1;SDS_P2;PMS_P1;PMS_P2;Temp;Humidity;BMP_temperature;BMP_pressure;BME280_temperature;BME280_humidity;BME280_pressure;Samples;Min_cycle;Max_cycle;Signal;HPM_P1;HPM_P2
2024/01/20 00:01:53;;;;;;;23.77;14.07;;;;;;;6.80;100.00;99552.34;5049233;28;20468;-75
2024/01/20 00:04:18;;;;;;;23.02;13.98;;;;;;;6.83;100.00;99529.91;5067389;28;20047;-76
2024/01/20 00:06:44;;;;;;;19.35;13.25;;;;;;;7.01;100.00;99563.72;5068055;28;20043;-75
2024/01/20 00:09:10;;;;;;;19.30;13.52;;;;;;;7.35;100.00;99588.28;5086630;28;20119;-76
2024/01/20 00:11:35;;;;;;;22.05;14.68;;;;;;;7.35;100.00;99580.31;5070825;28;20055;-77
2024/01/20 00:14:03;;;;;;;19.75;13.65;;;;;;;6.96;100.00;99560.84;5086891;28;20052;-76
2024/01/20 00:16:30;;;;;;;19.98;13.02;;;;;;;6.69;100.00;99570.69;5078750;28;20060;-76
2024/01/20 00:18:55;;;;;;;17.75;12.43;;;;;;;6.33;100.00;99566.63;5077876;28;20070;-77
2024/01/20 00:21:21;;;;;;;22.13;13.95;;;;;;;6.63;100.00;99557.22;5081560;28;20111;-78
2024/01/20 00:23:46;;;;;;;19.67;13.93;;;;;;;7.17;100.00;99573.88;5079577;28;20066;-77
2024/01/20 00:26:11;;;;;;;23.05;14.65;;;;;;;7.20;100.00;99572.63;5065830;28;20046;-76
2024/01/20 00:28:37;;;;;;;40.25;26.25;;;;;;;7.24;100.00;99557.91;5071670;28;20040;-76
2024/01/20 00:31:02;;;;;;;23.02;14.57;;;;;;;7.37;100.00;99567.66;5071930;28;20493;-76
2024/01/20 00:33:28;;;;;;;38.53;27.67;;;;;;;7.38;100.00;99564.00;5090789;28;20032;-76
2024/01/20 00:35:53;;;;;;;31.98;20.13;;;;;;;7.41;100.00;99561.72;5074630;28;20474;-77
2024/01/20 00:38:19;;;;;;;42.72;23.85;;;;;;;7.70;100.00;99587.94;5073274;28;20025;-75
2024/01/20 00:40:44;;;;;;;35.17;21.60;;;;;;;7.74;100.00;99595.25;5080813;28;20089;-77
2024/01/20 00:43:10;;;;;;;32.05;19.25;;;;;;;7.67;100.00;99593.69;5069809;28;20032;-76
2024/01/20 00:45:35;;;;;;;33.47;20.50;;;;;;;7.93;100.00;99604.16;5090252;28;20023;-76
2024/01/20 00:48:00;;;;;;;40.38;23.35;;;;;;;8.08;100.00;99601.22;5085879;28;20032;-76
2024/01/20 00:50:26;;;;;;;29.83;19.23;;;;;;;8.20;100.00;99614.63;5070272;28;20028;-77
2024/01/20 00:52:51;;;;;;;33.47;19.08;;;;;;;7.98;100.00;99585.72;5052120;28;20024;-78
2024/01/20 00:55:17;;;;;;;44.25;27.83;;;;;;;8.18;100.00;99590.94;5070414;28;20389;-76
2024/01/20 00:57:43;;;;;;;42.92;28.27;;;;;;;8.30;100.00;99593.72;5071701;28;20028;-76
2024/01/20 01:00:10;;;;;;;52.15;38.33;;;;;;;8.26;100.00;99573.91;5071107;28;20025;-77
2024/01/20 01:02:39;;;;;;;46.40;33.38;;;;;;;8.21;100.00;99585.19;5069954;28;20055;-78
2024/01/20 01:05:05;;;;;;;52.33;38.83;;;;;;;8.39;100.00;99602.22;5075248;28;20112;-76
2024/01/20 01:07:32;;;;;;;50.78;36.55;;;;;;;8.35;100.00;99590.41;5089910;28;20061;-78
2024/01/20 01:09:57;;;;;;;42.10;27.13;;;;;;;8.36;100.00;99597.34;5070617;28;20107;-77
2024/01/20 01:12:23;;;;;;;29.27;18.55;;;;;;;8.04;100.00;99584.88;5069695;28;20031;-77
2024/01/20 01:14:49;;;;;;;26.50;16.45;;;;;;;8.18;100.00;99609.53;5068911;28;20107;-77
2024/01/20 01:17:16;;;;;;;26.40;17.50;;;;;;;8.20;100.00;99625.25;5069337;28;20108;-76
2024/01/20 01:19:42;;;;;;;25.30;16.20;;;;;;;7.96;100.00;99593.09;5084805;28;20028;-76
2024/01/20 01:22:07;;;;;;;19.73;14.00;;;;;;;7.95;100.00;99609.25;5071560;28;20093;-77
2024/01/20 01:24:32;;;;;;;24.13;15.32;;;;;;;7.71;100.00;99632.03;5089302;28;20481;-76
2024/01/20 01:26:58;;;;;;;23.90;15.10;;;;;;;7.74;100.00;99642.22;5089147;28;20077;-77
2024/01/20 01:29:23;;;;;;;23.08;16.02;;;;;;;7.70;100.00;99641.00;5089144;28;20036;-77
2024/01/20 01:31:49;;;;;;;22.70;14.85;;;;;;;7.73;100.00;99660.00;5089158;28;20031;-77
2024/01/20 01:34:14;;;;;;;19.80;13.18;;;;;;;7.70;100.00;99654.28;5089415;28;20077;-75
2024/01/20 01:36:39;;;;;;;22.38;14.93;;;;;;;7.64;100.00;99640.84;5073097;28;20028;-77
2024/01/20 01:39:05;;;;;;;23.95;13.63;;;;;;;7.67;100.00;99618.38;5058627;28;20032;-77
2024/01/20 01:41:30;;;;;;;23.10;15.10;;;;;;;7.93;100.00;99644.00;5089333;28;20057;-77
2024/01/20 01:43:56;;;;;;;24.33;14.55;;;;;;;8.07;100.00;99638.59;5089319;28;20401;-77
2024/01/20 01:46:21;;;;;;;22.15;14.35;;;;;;;8.07;100.00;99663.34;5088735;28;20115;-78
2024/01/20 01:48:47;;;;;;;23.35;13.85;;;;;;;7.80;100.00;99641.38;5085139;28;20032;-76
2024/01/20 01:51:12;;;;;;;20.83;14.27;;;;;;;7.94;100.00;99669.50;5069044;28;20021;-77
2024/01/20 01:53:39;;;;;;;22.38;13.60;;;;;;;7.93;100.00;99681.16;5069029;28;20036;-76
2024/01/20 01:56:06;;;;;;;26.05;14.65;;;;;;;7.94;100.00;99689.94;5068571;28;20029;-77
2024/01/20 01:58:32;;;;;;;24.25;13.93;;;;;;;7.84;100.00;99674.44;5071584;28;20032;-76
2024/01/20 02:00:58;;;;;;;21.73;13.88;;;;;;;7.92;100.00;99698.09;5069148;28;20025;-76
2024/01/20 02:03:23;;;;;;;20.48;12.75;;;;;;;7.88;100.00;99690.78;5069363;28;20028;-76
2024/01/20 02:05:49;;;;;;;21.15;12.48;;;;;;;7.88;100.00;99706.69;5068717;28;20447;-76
2024/01/20 02:08:14;;;;;;;20.02;12.32;;;;;;;7.74;100.00;99700.63;5073052;28;20127;-78
2024/01/20 02:10:43;;;;;;;18.98;12.35;;;;;;;7.87;100.00;99703.25;5071409;28;20028;-78
2024/01/20 02:13:13;;;;;;;19.10;10.68;;;;;;;7.80;100.00;99678.53;5050202;28;20107;-75
2024/01/20 02:15:39;;;;;;;16.55;10.27;;;;;;;8.02;100.00;99702.97;5067871;28;20110;-78
2024/01/20 02:18:04;;;;;;;14.85;8.90;;;;;;;8.22;100.00;99716.16;5068485;28;20037;-78
2024/01/20 02:20:29;;;;;;;11.10;7.93;;;;;;;8.22;100.00;99724.13;5071257;28;20032;-77
2024/01/20 02:22:55;;;;;;;11.38;6.75;;;;;;;8.28;100.00;99744.53;5068033;28;20108;-78
2024/01/20 02:25:20;;;;;;;11.70;7.13;;;;;;;8.37;100.00;99759.19;5067956;28;20040;-78
2024/01/20 02:27:46;;;;;;;12.45;7.00;;;;;;;8.40;100.00;99753.47;5068138;28;20028;-78
2024/01/20 02:30:11;;;;;;;8.88;5.93;;;;;;;8.43;100.00;99745.09;5079568;28;20036;-76
2024/01/20 02:32:37;;;;;;;13.05;6.38;;;;;;;8.49;100.00;99745.28;5088068;28;20513;-78
2024/01/20 02:35:03;;;;;;;14.57;7.20;;;;;;;8.60;100.00;99758.72;5088205;28;20024;-78
2024/01/20 02:37:29;;;;;;;11.98;6.47;;;;;;;8.69;100.00;99759.28;5088196;28;20072;-76
2024/01/20 02:39:56;;;;;;;10.57;6.75;;;;;;;8.94;100.00;99769.13;5086261;28;20460;-77
2024/01/20 02:42:22;;;;;;;11.93;6.43;;;;;;;8.73;100.00;99749.84;5088249;28;20027;-77
2024/01/20 02:44:47;;;;;;;11.00;6.63;;;;;;;8.89;100.00;99763.63;5087722;28;20051;-77
2024/01/20 02:47:12;;;;;;;11.25;5.65;;;;;;;8.89;100.00;99774.28;5087599;28;20103;-77
2024/01/20 02:49:38;;;;;;;10.20;7.35;;;;;;;8.73;100.00;99746.38;5086712;28;20463;-76
2024/01/20 02:52:03;;;;;;;10.18;6.13;;;;;;;8.87;100.00;99763.03;5088037;28;20023;-77
2024/01/20 02:54:29;;;;;;;10.52;6.78;;;;;;;8.83;100.00;99741.41;5088274;28;20074;-76
2024/01/20 02:56:54;;;;;;;11.48;6.38;;;;;;;8.89;100.00;99745.03;5087660;28;20043;-77
2024/01/20 02:59:20;;;;;;;11.15;6.35;;;;;;;8.94;100.00;99753.19;5086294;28;20075;-77
2024/01/20 03:01:45;;;;;;;9.93;6.20;;;;;;;8.93;100.00;99767.50;5067997;28;20090;-77
2024/01/20 03:04:10;;;;;;;11.77;6.55;;;;;;;9.05;100.00;99773.75;5067762;28;20036;-77
2024/01/20 03:06:36;;;;;;;11.38;6.82;;;;;;;8.98;100.00;99794.28;5073434;28;20043;-77
2024/01/20 03:09:01;;;;;;;14.50;7.47;;;;;;;9.07;100.00;99800.94;5087653;28;20055;-76
2024/01/20 03:11:27;;;;;;;11.95;6.70;;;;;;;8.86;100.00;99772.88;5070689;28;20067;-76
2024/01/20 03:13:52;;;;;;;12.43;8.10;;;;;;;8.96;100.00;99809.63;5067275;28;20024;-77
2024/01/20 03:16:17;;;;;;;11.43;6.60;;;;;;;8.90;100.00;99805.16;5067255;28;20047;-77
2024/01/20 03:18:43;;;;;;;10.90;6.30;;;;;;;8.95;100.00;99821.28;5067543;28;20029;-76
2024/01/20 03:21:08;;;;;;;9.65;6.28;;;;;;;8.73;100.00;99789.72;5069854;28;20024;-77
2024/01/20 03:23:34;;;;;;;14.75;10.63;;;;;;;8.85;100.00;99816.44;5067912;28;20089;-77
2024/01/20 03:26:07;;;;;;;14.38;12.05;;;;;;;8.75;100.00;99819.56;5067602;28;20032;-76
2024/01/20 03:28:33;;;;;;;11.27;6.68;;;;;;;8.71;100.00;99823.69;5049551;28;20036;-77
2024/01/20 03:30:58;;;;;;;10.70;6.22;;;;;;;8.88;100.00;99837.28;5079280;28;20408;-76
2024/01/20 03:33:24;;;;;;;9.85;6.22;;;;;;;8.84;100.00;99828.09;5087929;28;20027;-76
2024/01/20 03:35:49;;;;;;;10.25;6.63;;;;;;;8.71;100.00;99855.59;5087859;28;20889;-78
2024/01/20 03:38:14;;;;;;;23.77;15.15;;;;;;;8.64;100.00;99860.94;5071786;28;20119;-77
2024/01/20 03:40:43;;;;;;;24.70;16.02;;;;;;;8.39;100.00;99839.50;5075622;28;20381;-78
2024/01/20 03:43:09;;;;;;;11.20;7.15;;;;;;;8.70;100.00;99861.09;5087140;28;20055;-76
2024/01/20 03:45:34;;;;;;;11.90;7.85;;;;;;;8.40;100.00;99849.13;5087316;28;20501;-77
2024/01/20 03:48:00;;;;;;;12.93;6.97;;;;;;;8.48;100.00;99829.53;5086929;28;20508;-77
2024/01/20 03:50:25;;;;;;;13.27;7.25;;;;;;;8.59;100.00;99852.75;5086245;28;20028;-77
2024/01/20 03:52:51;;;;;;;12.60;7.43;;;;;;;8.59;100.00;99868.72;5086903;28;20046;-76
2024/01/20 03:55:16;;;;;;;23.05;9.93;;;;;;;8.74;100.00;99876.41;5086905;28;20020;-77
2024/01/20 03:57:41;;;;;;;46.05;17.48;;;;;;;8.56;100.00;99874.47;5060997;28;20040;-77
2024/01/20 04:00:07;;;;;;;35.05;11.90;;;;;;;8.57;100.00;99880.59;5073628;28;20104;-77
2024/01/20 04:02:33;;;;;;;38.58;14.52;;;;;;;8.62;100.00;99873.63;5072493;28;20032;-77
2024/01/20 04:04:58;;;;;;;47.08;16.83;;;;;;;8.34;100.00;99865.09;5072421;28;20745;-77
2024/01/20 04:07:23;;;;;;;29.52;11.68;;;;;;;8.37;100.00;99883.28;5067202;28;20029;-76
2024/01/20 04:09:49;;;;;;;50.75;20.17;;;;;;;8.40;100.00;99894.31;5070395;28;20595;-77
2024/01/20 04:12:14;;;;;;;18.25;9.20;;;;;;;8.51;100.00;99908.00;5073059;28;20028;-77
2024/01/20 04:14:40;;;;;;;14.32;7.22;;;;;;;7.95;100.00;99835.78;5070308;28;20094;-77
2024/01/20 04:17:05;;;;;;;12.00;5.85;;;;;;;8.30;100.00;99885.94;5070626;28;20116;-77
2024/01/20 04:19:30;;;;;;;12.40;5.93;;;;;;;8.24;100.00;99908.84;5070255;28;20028;-76
2024/01/20 04:21:56;;;;;;;10.88;6.40;;;;;;;8.28;100.00;99922.53;5073048;28;20512;-77
2024/01/20 04:24:21;;;;;;;11.68;6.13;;;;;;;8.24;100.00;99931.94;5070489;28;20039;-77
2024/01/20 04:26:46;;;;;;;10.75;5.68;;;;;;;8.12;100.00;99937.06;5070694;28;20466;-77
2024/01/20 04:29:12;;;;;;;7.63;4.57;;;;;;;7.98;100.00;99925.63;5070625;28;20036;-76
2024/01/20 04:31:37;;;;;;;10.52;5.30;;;;;;;8.12;100.00;99941.56;5072991;28;20038;-77
2024/01/20 04:34:03;;;;;;;8.43;5.40;;;;;;;8.05;100.00;99942.38;5070121;28;20033;-77
2024/01/20 04:36:28;;;;;;;8.65;5.03;;;;;;;7.84;100.00;99939.94;5070342;28;20094;-76
2024/01/20 04:38:54;;;;;;;10.27;5.30;;;;;;;7.95;100.00;99934.03;5051919;28;20040;-77
2024/01/20 04:41:19;;;;;;;7.75;4.82;;;;;;;7.75;100.00;99943.81;5072624;28;20031;-76
2024/01/20 04:43:44;;;;;;;10.25;5.57;;;;;;;7.89;100.00;99937.50;5070377;28;20030;-76
2024/01/20 04:46:11;;;;;;;76.00;56.65;;;;;;;7.61;100.00;99925.22;5052426;28;20111;-76
2024/01/20 04:48:36;;;;;;;73.78;39.72;;;;;;;7.75;100.00;99957.09;5069968;28;20029;-76
2024/01/20 04:51:01;;;;;;;17.65;14.93;;;;;;;7.87;100.00;99955.47;5074552;28;20028;-75
2024/01/20 04:53:27;;;;;;;20.38;16.13;;;;;;;7.70;100.00;99956.88;5090566;28;20396;-77
2024/01/20 04:55:52;;;;;;;15.98;13.73;;;;;;;7.86;100.00;99983.03;5090312;28;20024;-77
2024/01/20 04:58:17;;;;;;;14.00;10.68;;;;;;;7.59;100.00;99959.09;5082410;28;20059;-77
2024/01/20 05:00:44;;;;;;;12.45;10.95;;;;;;;7.65;100.00;99955.63;5070327;28;20036;-78
2024/01/20 05:03:10;;;;;;;9.85;6.38;;;;;;;7.96;100.00;100007.34;5071516;28;20052;-78
2024/01/20 05:05:35;;;;;;;7.80;4.40;;;;;;;7.69;100.00;100000.38;5051764;28;20521;-77
2024/01/20 05:08:01;;;;;;;8.65;5.60;;;;;;;7.77;100.00;100002.84;5051487;28;20033;-77
2024/01/20 05:10:26;;;;;;;7.30;5.18;;;;;;;7.89;100.00;100006.53;5069331;28;20094;-77
2024/01/20 05:12:51;;;;;;;9.95;3.85;;;;;;;7.82;100.00;99997.72;5072235;28;20025;-77
2024/01/20 05:15:17;;;;;;;11.30;7.40;;;;;;;7.64;100.00;99983.22;5051584;28;20169;-76
2024/01/20 05:17:42;;;;;;;15.98;9.60;;;;;;;7.97;100.00;100019.59;5069367;28;20036;-77
2024/01/20 05:20:08;;;;;;;13.85;9.15;;;;;;;7.83;100.00;100023.25;5051658;28;20144;-77
2024/01/20 05:22:33;;;;;;;9.15;5.55;;;;;;;7.76;100.00;100043.66;5069651;28;20178;-78
2024/01/20 05:24:59;;;;;;;8.57;3.95;;;;;;;7.76;100.00;100043.66;5069666;28;20520;-78
2024/01/20 05:27:26;;;;;;;9.20;5.22;;;;;;;7.63;100.00;100045.25;5051601;28;20570;-77
2024/01/20 05:29:51;;;;;;;7.45;4.50;;;;;;;7.56;100.00;100039.13;5069348;28;20099;-76
2024/01/20 05:32:17;;;;;;;7.57;4.20;;;;;;;7.80;100.00;100061.63;5053355;28;20107;-77
2024/01/20 05:34:43;;;;;;;8.63;4.47;;;;;;;7.71;100.00;100070.00;5069562;28;20106;-77
2024/01/20 05:37:08;;;;;;;8.88;4.95;;;;;;;7.64;100.00;100070.81;5069088;28;20040;-78
2024/01/20 05:39:34;;;;;;;11.88;5.85;;;;;;;7.53;100.00;100086.47;5069076;28;20028;-76
2024/01/20 05:42:00;;;;;;;8.43;3.70;;;;;;;7.57;100.00;100093.81;5058293;28;20822;-77
2024/01/20 05:44:26;;;;;;;7.50;3.72;;;;;;;7.56;100.00;100086.91;5089262;28;20091;-78
2024/01/20 05:46:51;;;;;;;8.00;4.45;;;;;;;7.40;100.00;100103.97;5070809;28;20067;-77
2024/01/20 05:49:17;;;;;;;9.27;3.70;;;;;;;7.48;100.00;100102.16;5077748;28;20037;-77
2024/01/20 05:51:42;;;;;;;7.13;4.30;;;;;;;7.49;100.00;100122.38;5071076;28;20028;-77
2024/01/20 05:54:08;;;;;;;5.32;3.13;;;;;;;7.16;100.00;100126.50;5068237;28;20028;-77
2024/01/20 05:56:33;;;;;;;6.78;3.63;;;;;;;7.19;100.00;100128.75;5068502;28;20111;-78
2024/01/20 05:58:59;;;;;;;5.78;3.30;;;;;;;7.29;100.00;100138.19;5068717;28;20497;-78
2024/01/20 06:01:24;;;;;;;7.97;4.07;;;;;;;7.34;100.00;100151.69;5068315;28;20024;-78
2024/01/20 06:03:50;;;;;;;7.53;5.18;;;;;;;7.21;100.00;100147.97;5088547;28;20490;-77
2024/01/20 06:06:15;;;;;;;5.35;3.00;;;;;;;6.96;98.29;100128.19;5088371;28;20420;-77
2024/01/20 06:08:40;;;;;;;7.03;4.80;;;;;;;6.86;99.31;100143.63;5088761;28;20024;-77
2024/01/20 06:11:06;;;;;;;5.82;3.33;;;;;;;6.76;98.78;100142.13;5088613;28;20111;-77
2024/01/20 06:13:31;;;;;;;7.53;4.65;;;;;;;6.60;99.52;100126.50;5087751;28;20036;-78
2024/01/20 06:15:56;;;;;;;7.57;4.10;;;;;;;6.27;100.00;100132.31;5070010;28;20040;-78
2024/01/20 06:18:22;;;;;;;5.25;3.13;;;;;;;6.26;100.00;100106.03;5088123;28;20150;-77
2024/01/20 06:20:47;;;;;;;4.80;2.90;;;;;;;6.17;98.21;100145.88;5087106;28;20027;-77
2024/01/20 06:23:13;;;;;;;5.25;3.17;;;;;;;6.16;99.31;100154.00;5086578;28;20059;-77
2024/01/20 06:25:38;;;;;;;5.72;3.80;;;;;;;6.00;100.00;100176.22;5070196;28;20028;-78
2024/01/20 06:28:05;;;;;;;4.78;3.08;;;;;;;5.89;100.00;100158.97;5088259;28;20035;-78
2024/01/20 06:30:31;;;;;;;4.80;3.20;;;;;;;6.11;100.00;100156.38;5069746;28;20083;-77
2024/01/20 06:32:58;;;;;;;6.70;4.40;;;;;;;6.30;98.08;100184.91;5079965;28;20743;-78
2024/01/20 06:35:23;;;;;;;11.88;5.90;;;;;;;6.28;97.81;100184.28;5050018;28;20024;-77
2024/01/20 06:37:49;;;;;;;10.07;6.05;;;;;;;5.92;99.52;100161.22;5067743;28;20024;-78
2024/01/20 06:40:14;;;;;;;11.65;5.80;;;;;;;5.90;100.00;100155.31;5049832;28;20067;-77
2024/01/20 06:42:39;;;;;;;15.68;8.05;;;;;;;6.14;100.00;100195.72;5070367;28;20048;-76
2024/01/20 06:45:05;;;;;;;16.92;7.18;;;;;;;6.24;98.71;100201.56;5067987;28;20024;-76
2024/01/20 06:47:31;;;;;;;24.67;9.80;;;;;;;6.27;97.85;100209.09;5067803;28;20078;-76
2024/01/20 06:49:56;;;;;;;14.85;6.90;;;;;;;6.02;97.85;100185.63;5067086;28;20017;-77
2024/01/20 06:52:21;;;;;;;13.85;5.82;;;;;;;6.11;99.48;100223.41;5051963;28;20032;-76
2024/01/20 06:54:48;;;;;;;34.53;13.35;;;;;;;6.20;98.24;100224.13;5067689;28;20048;-76
2024/01/20 06:57:13;;;;;;;39.30;12.60;;;;;;;6.08;99.67;100209.72;5067431;28;20473;-77
2024/01/20 06:59:39;;;;;;;55.78;20.50;;;;;;;6.26;99.95;100228.66;5067965;28;20032;-76
2024/01/20 07:02:05;;;;;;;48.55;16.95;;;;;;;6.24;97.11;100230.69;5077709;28;20092;-77
2024/01/20 07:04:31;;;;;;;41.88;14.80;;;;;;;6.19;100.00;100227.75;5079752;28;20029;-77
2024/01/20 07:06:56;;;;;;;14.65;7.95;;;;;;;6.24;98.71;100251.88;5057927;28;20032;-78
2024/01/20 07:09:21;;;;;;;13.25;7.20;;;;;;;6.13;100.00;100241.75;5072693;28;20025;-77
2024/01/20 07:11:47;;;;;;;12.98;6.90;;;;;;;6.14;100.00;100268.03;5067262;28;20461;-76
2024/01/20 07:14:12;;;;;;;8.23;4.30;;;;;;;6.22;100.00;100260.00;5080262;28;20056;-77
2024/01/20 07:16:37;;;;;;;6.40;3.58;;;;;;;6.07;100.00;100267.16;5087852;28;20039;-77
2024/01/20 07:19:03;;;;;;;11.27;6.78;;;;;;;5.79;100.00;100274.88;5087448;28;20077;-76
2024/01/20 07:21:28;;;;;;;11.52;6.72;;;;;;;5.85;100.00;100271.50;5087279;28;20081;-76
2024/01/20 07:23:54;;;;;;;7.22;4.10;;;;;;;5.30;100.00;100251.59;5076487;28;20033;-76
2024/01/20 07:26:19;;;;;;;5.00;3.17;;;;;;;5.30;100.00;100267.44;5067207;28;20020;-77
2024/01/20 07:28:45;;;;;;;6.50;3.75;;;;;;;5.42;100.00;100284.53;5067564;28;20033;-76
2024/01/20 07:31:11;;;;;;;6.68;4.20;;;;;;;5.51;100.00;100304.59;5067068;28;20107;-77
2024/01/20 07:33:37;;;;;;;6.03;3.78;;;;;;;6.10;100.00;100305.66;5079384;28;20130;-76
2024/01/20 07:36:03;;;;;;;7.80;4.35;;;;;;;5.74;100.00;100309.00;5091014;28;20088;-78
2024/01/20 07:38:28;;;;;;;5.97;3.60;;;;;;;5.17;100.00;100316.47;5090711;28;20028;-78
2024/01/20 07:40:54;;;;;;;5.28;3.63;;;;;;;4.93;100.00;100321.94;5063297;28;20554;-78
2024/01/20 07:43:20;;;;;;;7.95;4.35;;;;;;;4.66;100.00;100295.03;5084453;28;20118;-77
2024/01/20 07:45:46;;;;;;;8.63;3.78;;;;;;;4.71;100.00;100342.84;5080700;28;20016;-77
2024/01/20 07:48:11;;;;;;;7.22;4.25;;;;;;;4.34;100.00;100307.41;5079528;28;20036;-79
2024/01/20 07:50:37;;;;;;;6.30;3.55;;;;;;;4.35;100.00;100319.63;5081976;28;20099;-77
2024/01/20 07:53:03;;;;;;;7.95;4.45;;;;;;;4.31;100.00;100315.66;5062840;28;20040;-77
2024/01/20 07:55:29;;;;;;;7.68;4.32;;;;;;;4.21;100.00;100339.63;5065522;28;20035;-78
2024/01/20 07:57:54;;;;;;;7.63;4.80;;;;;;;4.26;100.00;100331.19;5079184;28;20099;-77
2024/01/20 08:00:20;;;;;;;8.30;4.97;;;;;;;4.52;100.00;100351.22;5081792;28;20374;-78
2024/01/20 08:02:45;;;;;;;8.45;4.57;;;;;;;4.17;100.00;100326.94;5079105;28;20036;-78
2024/01/20 08:05:11;;;;;;;7.70;4.40;;;;;;;4.08;100.00;100341.97;5081672;28;20099;-78
2024/01/20 08:07:36;;;;;;;7.43;4.00;;;;;;;4.09;100.00;100345.44;5060894;28;20078;-77
2024/01/20 08:10:02;;;;;;;8.45;4.40;;;;;;;4.40;100.00;100380.63;5082117;28;20111;-78
2024/01/20 08:12:27;;;;;;;9.27;4.55;;;;;;;4.45;100.00;100392.50;5083323;28;20032;-78
2024/01/20 08:14:53;;;;;;;9.43;5.45;;;;;;;4.13;100.00;100379.25;5086451;28;20051;-77
2024/01/20 08:17:18;;;;;;;10.52;4.55;;;;;;;4.30;100.00;100403.78;5090220;28;20445;-77
2024/01/20 08:19:45;;;;;;;9.70;4.60;;;;;;;4.33;100.00;100373.56;5091237;28;20473;-77
2024/01/20 08:22:12;;;;;;;8.63;4.35;;;;;;;4.38;100.00;100397.66;5087341;28;20064;-78
2024/01/20 08:24:38;;;;;;;17.10;7.72;;;;;;;4.50;100.00;100419.25;5072165;28;20116;-77
2024/01/20 08:27:03;;;;;;;35.25;13.43;;;;;;;4.42;100.00;100435.94;5070390;28;20112;-75
2024/01/20 08:29:29;;;;;;;20.83;8.85;;;;;;;4.36;100.00;100431.31;5069715;28;20099;-76
2024/01/20 08:31:54;;;;;;;19.63;8.85;;;;;;;4.32;100.00;100422.09;5070122;28;20021;-78
2024/01/20 08:34:19;;;;;;;18.42;8.95;;;;;;;4.49;100.00;100442.16;5072696;28;20028;-77
2024/01/20 08:36:45;;;;;;;14.70;8.07;;;;;;;4.41;100.00;100445.69;5070147;28;20025;-77
2024/01/20 08:39:10;;;;;;;8.55;4.28;;;;;;;4.05;100.00;100429.41;5070127;28;20028;-76
2024/01/20 08:41:36;;;;;;;14.85;7.35;;;;;;;4.15;100.00;100460.91;5070199;28;20047;-77
2024/01/20 08:44:01;;;;;;;10.57;4.53;;;;;;;3.85;100.00;100428.13;5071322;28;20024;-77
2024/01/20 08:46:27;;;;;;;10.48;4.70;;;;;;;3.80;100.00;100453.19;5070518;28;20056;-77
2024/01/20 08:48:52;;;;;;;17.08;7.53;;;;;;;3.93;100.00;100480.88;5069877;28;20052;-77
2024/01/20 08:51:18;;;;;;;13.57;6.80;;;;;;;3.65;100.00;100438.16;5051904;28;20024;-76
2024/01/20 08:53:44;;;;;;;15.05;7.68;;;;;;;4.02;100.00;100450.84;5070645;28;20590;-78
2024/01/20 08:56:09;;;;;;;26.92;10.98;;;;;;;4.33;100.00;100474.75;5071598;28;20032;-77
2024/01/20 08:58:35;;;;;;;19.58;12.40;;;;;;;4.31;100.00;100460.88;5089957;28;20023;-77
2024/01/20 09:01:00;;;;;;;13.40;7.97;;;;;;;4.36;100.00;100466.47;5089724;28;20103;-77
2024/01/20 09:03:26;;;;;;;15.68;7.97;;;;;;;4.54;100.00;100468.91;5090020;28;20428;-76
2024/01/20 09:05:52;;;;;;;15.52;7.00;;;;;;;4.51;100.00;100460.50;5089085;28;20465;-77
2024/01/20 09:08:17;;;;;;;17.95;7.43;;;;;;;4.49;100.00;100451.91;5089683;28;20032;-76
2024/01/20 09:10:43;;;;;;;8.93;3.60;;;;;;;4.61;100.00;100474.34;5088679;28;20043;-76
2024/01/20 09:13:08;;;;;;;8.55;5.70;;;;;;;4.54;100.00;100471.56;5069434;28;20036;-77
2024/01/20 09:15:34;;;;;;;14.57;6.85;;;;;;;4.46;100.00;100468.13;5082655;28;20054;-76
2024/01/20 09:17:59;;;;;;;10.32;6.32;;;;;;;3.58;100.00;100478.38;5089404;28;20027;-76
2024/01/20 09:20:25;;;;;;;7.47;3.63;;;;;;;3.21;100.00;100495.44;5089758;28;20033;-76
2024/01/20 09:22:50;;;;;;;8.82;4.88;;;;;;;2.87;100.00;100502.56;5089243;28;20107;-76
2024/01/20 09:25:16;;;;;;;5.72;3.22;;;;;;;2.46;100.00;100494.44;5080063;28;20021;-76
2024/01/20 09:27:42;;;;;;;14.43;8.75;;;;;;;2.08;100.00;100507.00;5068882;28;20021;-77
2024/01/20 09:30:09;;;;;;;16.77;10.63;;;;;;;2.07;100.00;100536.94;5069103;28;20042;-76
2024/01/20 09:32:35;;;;;;;20.27;11.25;;;;;;;2.03;100.00;100538.22;5069206;28;20158;-76
2024/01/20 09:35:01;;;;;;;12.00;6.32;;;;;;;1.81;100.00;100542.94;5071541;28;20036;-76
2024/01/20 09:37:26;;;;;;;27.17;14.07;;;;;;;2.07;100.00;100568.50;5069196;28;20035;-76
2024/01/20 09:39:52;;;;;;;21.27;11.55;;;;;;;1.92;100.00;100528.75;5068772;28;20032;-77
2024/01/20 09:42:18;;;;;;;20.20;10.77;;;;;;;2.16;100.00;100557.06;5069106;28;20036;-77
2024/01/20 09:44:44;;;;;;;19.92;10.25;;;;;;;2.05;100.00;100567.84;5054216;28;20032;-77
2024/01/20 09:47:11;;;;;;;16.98;9.00;;;;;;;1.80;100.00;100557.91;5088878;28;20039;-77
2024/01/20 09:49:37;;;;;;;15.00;8.43;;;;;;;1.50;100.00;100548.56;5089097;28;20140;-76
2024/01/20 09:52:09;;;;;;;26.83;13.38;;;;;;;1.89;100.00;100571.94;5080916;28;20027;-77
2024/01/20 09:54:45;;;;;;;19.30;7.93;;;;;;;1.63;100.00;100565.78;5068495;28;20054;-77
2024/01/20 09:57:11;;;;;;;21.02;8.05;;;;;;;1.49;100.00;100564.47;5068215;28;20414;-77
2024/01/20 09:59:40;;;;;;;13.77;7.53;;;;;;;1.67;100.00;100533.78;5068846;28;20031;-76
2024/01/20 10:02:10;;;;;;;24.73;12.25;;;;;;;1.95;100.00;100591.59;5069475;28;20089;-77
2024/01/20 10:04:39;;;;;;;15.80;7.90;;;;;;;1.72;100.00;100594.63;5070304;28;20024;-77
2024/01/20 10:07:04;;;;;;;13.68;6.97;;;;;;;1.96;100.00;100582.69;5089328;28;20440;-76
2024/01/20 10:09:30;;;;;;;20.00;9.82;;;;;;;1.68;100.00;100585.41;5089710;28;20034;-76
2024/01/20 10:11:56;;;;;;;15.80;9.73;;;;;;;1.60;100.00;100608.97;5090795;28;20024;-76
2024/01/20 10:14:21;;;;;;;16.85;9.55;;;;;;;1.80;100.00;100601.78;5090664;28;20044;-77
2024/01/20 10:16:47;;;;;;;11.73;6.68;;;;;;;2.01;100.00;100618.09;5092910;28;20024;-77
2024/01/20 10:19:12;;;;;;;6.32;3.65;;;;;;;1.91;100.00;100606.81;5082905;28;20024;-78
2024/01/20 10:21:39;;;;;;;4.78;2.47;;;;;;;1.72;100.00;100601.72;5086625;28;20040;-78
2024/01/20 10:24:06;;;;;;;16.27;7.40;;;;;;;1.37;100.00;100609.38;5100925;28;20026;-78
2024/01/20 10:26:43;;;;;;;6.68;3.80;;;;;;;1.68;100.00;100622.19;5098152;28;20062;-79
2024/01/20 10:29:09;;;;;;;5.97;3.33;;;;;;;1.64;100.00;100609.50;5101556;28;20031;-78
2024/01/20 10:31:35;;;;;;;7.15;3.53;;;;;;;1.52;100.00;100599.19;5097766;28;20028;-77
2024/01/20 10:34:00;;;;;;;5.40;2.72;;;;;;;1.49;100.00;100610.00;5058977;28;20036;-78
2024/01/20 10:36:27;;;;;;;5.45;2.95;;;;;;;1.65;100.00;100645.31;5078949;28;20028;-77
2024/01/20 10:38:53;;;;;;;7.47;4.05;;;;;;;1.59;100.00;100639.69;5077235;28;20028;-77
2024/01/20 10:41:23;;;;;;;6.10;3.13;;;;;;;1.68;100.00;100647.69;5091185;28;20043;-77
2024/01/20 10:43:58;;;;;;;7.25;3.70;;;;;;;1.70;100.00;100648.34;5088053;28;20024;-77
2024/01/20 10:46:27;;;;;;;11.18;6.40;;;;;;;1.72;100.00;100649.84;5081395;28;20062;-78
2024/01/20 10:48:55;;;;;;;5.35;3.00;;;;;;;1.52;100.00;100658.81;5079885;28;20077;-78
2024/01/20 10:51:27;;;;;;;6.95;3.03;;;;;;;1.11;100.00;100619.69;5089723;28;20107;-77
2024/01/20 10:53:56;;;;;;;8.18;3.85;;;;;;;1.24;100.00;100663.22;5072998;28;20519;-77
2024/01/20 10:56:22;;;;;;;9.65;5.43;;;;;;;1.17;100.00;100640.13;5081327;28;20032;-79
2024/01/20 10:59:08;;;;;;;8.90;5.80;;;;;;;1.25;100.00;100662.22;5069097;28;20028;-77
2024/01/20 11:01:35;;;;;;;8.10;5.07;;;;;;;1.27;100.00;100676.03;5068168;28;20028;-78
2024/01/20 11:04:01;;;;;;;8.18;4.47;;;;;;;1.18;100.00;100677.75;5072689;28;20023;-78
2024/01/20 11:06:26;;;;;;;10.40;5.00;;;;;;;1.29;100.00;100659.19;5077931;28;20043;-78
2024/01/20 11:08:52;;;;;;;7.25;4.15;;;;;;;1.33;100.00;100675.50;5075143;28;20040;-78
2024/01/20 11:11:19;;;;;;;11.23;6.28;;;;;;;1.04;100.00;100659.81;5075627;28;20490;-78
2024/01/20 11:13:48;;;;;;;10.15;5.22;;;;;;;1.09;100.00;100687.31;5058227;28;20432;-78
2024/01/20 11:16:22;;;;;;;12.70;5.07;;;;;;;1.12;100.00;100662.53;5077341;28;20017;-78